Time;durP1;ratioP1;P1;durP2;ratioP2;P2;SDS_P1;SDS_P2;PMS_P1;PMS_P2;Temp;Humidity;BMP_temperature;BMP_pressure;BME280_temperature;BME280_humidity;BME280_pressure;Samples;Min_cycle;Max_cycle;Signal;HPM_P1;HPM_P2
2023/05/19 05:02:28;;;;;;;4.32;1.77;;;11.60;93.00;;;;;;5337270;23;20097;-69
2023/05/19 05:04:55;;;;;;;9.52;2.50;;;11.60;93.50;;;;;;4867876;29;20101;-69
2023/05/19 05:07:21;;;;;;;7.32;2.40;;;11.60;93.20;;;;;;4873199;29;20103;-70
2023/05/19 05:09:49;;;;;;;7.00;2.20;;;11.60;93.20;;;;;;4873982;29;20029;-70
2023/05/19 05:12:17;;;;;;;6.13;2.15;;;11.70;93.50;;;;;;4873579;29;20029;-69
2023/05/19 05:14:44;;;;;;;6.55;2.83;;;11.80;93.30;;;;;;4873631;29;20100;-68
2023/05/19 05:17:11;;;;;;;6.43;2.30;;;11.80;93.00;;;;;;4873144;29;20037;-69
2023/05/19 05:19:37;;;;;;;8.50;2.40;;;11.80;93.00;;;;;;4890538;29;20100;-69
2023/05/19 05:22:05;;;;;;;7.07;2.40;;;11.80;92.90;;;;;;4873855;29;20053;-69
2023/05/19 05:24:32;;;;;;;6.30;2.23;;;11.80;93.00;;;;;;4873451;29;20069;-69
2023/05/19 05:27:03;;;;;;;6.70;2.55;;;11.90;93.30;;;;;;4873712;29;20040;-69
2023/05/19 05:29:29;;;;;;;7.43;2.20;;;12.00;92.80;;;;;;4873113;29;20036;-68
2023/05/19 05:31:55;;;;;;;5.80;2.35;;;12.10;92.70;;;;;;4873542;29;20032;-69
2023/05/19 05:34:21;;;;;;;6.97;2.90;;;12.20;92.70;;;;;;4873157;29;20038;-69
2023/05/19 05:36:47;;;;;;;5.45;2.17;;;12.40;92.40;;;;;;4873261;29;20056;-69
2023/05/19 05:39:13;;;;;;;8.05;2.58;;;12.50;92.40;;;;;;4869966;29;20029;-68
2023/05/19 05:41:40;;;;;;;6.43;2.20;;;12.70;92.10;;;;;;4869489;29;20036;-68
2023/05/19 05:44:10;;;;;;;5.70;2.30;;;12.70;92.00;;;;;;4869815;29;20085;-68
2023/05/19 05:46:38;;;;;;;7.45;2.28;;;12.80;91.80;;;;;;4868206;29;20033;-69
2023/05/19 05:49:04;;;;;;;7.50;3.40;;;12.70;91.60;;;;;;4887135;29;20025;-69
2023/05/19 05:51:31;;;;;;;6.28;2.40;;;12.60;91.70;;;;;;4888559;29;20021;-69
2023/05/19 05:53:59;;;;;;;4.75;2.20;;;12.60;91.80;;;;;;4873235;29;20032;-68
2023/05/19 05:56:32;;;;;;;6.75;2.63;;;12.50;91.90;;;;;;4868600;29;20040;-69
2023/05/19 05:58:59;;;;;;;6.75;2.25;;;12.50;92.10;;;;;;4869898;29;20042;-70
2023/05/19 06:01:24;;;;;;;6.40;2.50;;;12.50;92.50;;;;;;4884938;29;20104;-67
2023/05/19 06:03:52;;;;;;;7.10;2.30;;;12.50;92.20;;;;;;4861148;29;20364;-68
2023/05/19 06:06:20;;;;;;;6.97;2.05;;;12.60;92.30;;;;;;4860509;29;20029;-67
2023/05/19 06:08:46;;;;;;;7.30;2.20;;;12.60;92.00;;;;;;4873530;29;20072;-68
2023/05/19 06:11:12;;;;;;;7.00;2.22;;;12.80;92.10;;;;;;4863862;29;20263;-68
2023/05/19 06:13:42;;;;;;;5.53;2.30;;;13.00;91.70;;;;;;4858006;29;20311;-68
2023/05/19 06:16:13;;;;;;;6.82;2.83;;;13.10;91.70;;;;;;4859964;29;20025;-68
2023/05/19 06:18:42;;;;;;;6.82;2.25;;;13.30;91.70;;;;;;4854145;29;20112;-68
2023/05/19 06:21:09;;;;;;;6.60;2.75;;;13.50;91.00;;;;;;4860779;29;20045;-68
2023/05/19 06:23:35;;;;;;;5.38;2.50;;;13.80;91.10;;;;;;4855798;29;20049;-71
2023/05/19 06:26:03;;;;;;;;;;;14.00;90.50;;;;;;4864618;29;20061;-69
2023/05/19 06:28:30;;;;;;;8.07;2.42;;;14.20;90.70;;;;;;4865140;29;19915;-69
2023/05/19 06:30:56;;;;;;;7.68;2.55;;;14.50;90.90;;;;;;4853981;29;20025;-68
2023/05/19 06:33:37;;;;;;;8.00;2.25;;;14.70;90.40;;;;;;4854166;29;20077;-70
2023/05/19 06:36:03;;;;;;;6.57;1.83;;;14.80;89.00;;;;;;4854521;29;20198;-70
2023/05/19 06:38:30;;;;;;;11.40;2.97;;;14.90;89.00;;;;;;4853699;29;20030;-68
2023/05/19 06:40:56;;;;;;;9.18;2.42;;;15.00;88.80;;;;;;4858700;29;20096;-69
2023/05/19 06:43:21;;;;;;;7.20;2.75;;;15.10;88.80;;;;;;4870078;29;20040;-68
2023/05/19 06:45:55;;;;;;;8.30;2.55;;;15.20;88.20;;;;;;4863952;29;20064;-68
2023/05/19 06:48:23;;;;;;;5.82;2.42;;;15.30;87.60;;;;;;4866593;29;20223;-68
2023/05/19 06:50:49;;;;;;;7.65;2.53;;;15.30;88.50;;;;;;4853815;29;20096;-69
2023/05/19 06:53:17;;;;;;;7.47;2.90;;;15.40;89.40;;;;;;4868151;29;20056;-69
2023/05/19 06:55:43;;;;;;;6.00;2.25;;;15.40;87.50;;;;;;4869311;29;20307;-68
2023/05/19 06:58:10;;;;;;;5.55;2.47;;;15.60;86.90;;;;;;4852921;29;20196;-68
2023/05/19 07:00:36;;;;;;;6.15;2.47;;;15.70;86.40;;;;;;4853234;29;20030;-68
2023/05/19 07:03:04;;;;;;;7.13;2.10;;;15.80;86.30;;;;;;4853203;29;20042;-68
2023/05/19 07:05:30;;;;;;;7.85;2.60;;;16.00;85.60;;;;;;4869445;29;20303;-69
2023/05/19 07:07:58;;;;;;;7.45;2.70;;;16.00;85.50;;;;;;4866523;29;20108;-68
2023/05/19 07:10:27;;;;;;;12.40;2.67;;;16.00;85.40;;;;;;4838555;29;20110;-68
2023/05/19 07:12:53;;;;;;;7.65;2.47;;;16.00;85.40;;;;;;4853461;29;20093;-69
2023/05/19 07:15:22;;;;;;;7.38;2.40;;;16.10;86.40;;;;;;4858914;29;20038;-68
2023/05/19 07:17:47;;;;;;;5.70;2.53;;;16.10;86.90;;;;;;4855396;29;20317;-69
2023/05/19 07:20:13;;;;;;;7.32;2.50;;;16.20;85.70;;;;;;4871552;29;20302;-68
2023/05/19 07:22:39;;;;;;;10.43;2.60;;;16.30;85.20;;;;;;4871957;29;20028;-68
2023/05/19 07:25:09;;;;;;;7.05;2.60;;;16.40;85.40;;;;;;4865334;29;20033;-69
2023/05/19 07:27:35;;;;;;;5.53;2.13;;;16.50;85.30;;;;;;4862731;29;20041;-69
2023/05/19 07:30:02;;;;;;;10.68;2.60;;;16.40;84.80;;;;;;4869819;29;20236;-69
2023/05/19 07:32:28;;;;;;;9.48;2.95;;;16.50;84.50;;;;;;4881082;29;20141;-69
2023/05/19 07:34:54;;;;;;;8.60;2.50;;;16.50;84.40;;;;;;4888283;29;20037;-69
2023/05/19 07:37:19;;;;;;;6.93;2.30;;;16.50;83.40;;;;;;4888042;29;20208;-69
2023/05/19 07:39:45;;;;;;;8.55;2.67;;;16.70;83.50;;;;;;4888708;29;20032;-69
2023/05/19 07:42:11;;;;;;;8.50;2.60;;;17.00;83.50;;;;;;4888662;29;20184;-69
2023/05/19 07:44:36;;;;;;;10.80;2.83;;;17.30;82.50;;;;;;4884674;29;20041;-69
2023/05/19 07:47:02;;;;;;;5.60;2.17;;;17.60;82.00;;;;;;4871871;29;20199;-69
2023/05/19 07:49:28;;;;;;;8.23;2.60;;;17.80;81.70;;;;;;4869371;29;20037;-69
2023/05/19 07:51:54;;;;;;;7.80;2.90;;;17.80;80.80;;;;;;4869422;29;20041;-69
2023/05/19 07:54:20;;;;;;;8.48;2.38;;;18.00;81.00;;;;;;4869303;29;20037;-69
2023/05/19 07:56:46;;;;;;;9.18;2.45;;;18.00;80.50;;;;;;4873292;29;20093;-69
2023/05/19 07:59:13;;;;;;;11.25;3.15;;;17.80;80.20;;;;;;4870030;29;20026;-69
2023/05/19 08:01:39;;;;;;;8.65;2.35;;;17.80;80.20;;;;;;4868606;29;20335;-68
2023/05/19 08:04:04;;;;;;;8.35;3.15;;;17.70;79.90;;;;;;4874494;29;20040;-69
2023/05/19 08:06:30;;;;;;;7.40;2.10;;;17.50;80.20;;;;;;4872235;29;20025;-69
2023/05/19 08:08:56;;;;;;;8.27;2.47;;;17.30;80.20;;;;;;4873175;29;20211;-69
2023/05/19 08:11:22;;;;;;;6.97;2.28;;;17.10;81.50;;;;;;4872455;29;20025;-69
2023/05/19 08:13:48;;;;;;;5.05;2.13;;;17.10;81.30;;;;;;4872923;29;20100;-68
2023/05/19 08:16:16;;;;;;;5.18;2.22;;;17.00;81.50;;;;;;4872847;29;20065;-69
2023/05/19 08:18:42;;;;;;;5.85;2.08;;;17.00;81.60;;;;;;4873037;29;20041;-70
2023/05/19 08:21:08;;;;;;;6.40;2.30;;;17.10;81.30;;;;;;4872374;29;20055;-69
2023/05/19 08:23:36;;;;;;;8.02;2.35;;;17.10;81.00;;;;;;4872004;29;20037;-69
2023/05/19 08:26:01;;;;;;;7.22;2.08;;;17.00;80.70;;;;;;4872703;29;20399;-69
2023/05/19 08:28:27;;;;;;;8.27;2.40;;;17.20;81.30;;;;;;4872424;29;20056;-70
2023/05/19 08:30:53;;;;;;;9.48;3.55;;;17.30;81.40;;;;;;4872649;29;20036;-69
2023/05/19 08:33:20;;;;;;;4.75;2.10;;;17.40;80.70;;;;;;4871916;29;20046;-68
2023/05/19 08:35:46;;;;;;;4.57;1.95;;;17.40;80.00;;;;;;4872658;29;20033;-70
2023/05/19 08:38:12;;;;;;;6.72;2.58;;;17.40;80.20;;;;;;4872419;29;20049;-69
2023/05/19 08:40:40;;;;;;;6.80;1.88;;;17.40;80.10;;;;;;4871546;29;20044;-68
2023/05/19 08:43:06;;;;;;;6.47;2.35;;;17.40;80.60;;;;;;4869058;29;20037;-69
2023/05/19 08:45:33;;;;;;;7.10;2.47;;;17.50;80.40;;;;;;4882131;29;20324;-69
2023/05/19 08:47:59;;;;;;;8.32;2.15;;;17.60;79.60;;;;;;4874471;29;20072;-69
2023/05/19 08:50:35;;;;;;;6.38;1.90;;;17.60;79.80;;;;;;4872087;29;20382;-70
2023/05/19 08:53:14;;;;;;;7.13;2.30;;;17.60;79.80;;;;;;4872323;29;20108;-69
2023/05/19 08:55:45;;;;;;;7.80;2.38;;;17.50;79.80;;;;;;4871638;29;20200;-69
2023/05/19 08:58:12;;;;;;;9.98;2.30;;;17.50;79.90;;;;;;4872227;29;20040;-70
2023/05/19 09:00:38;;;;;;;10.10;2.67;;;17.60;80.00;;;;;;4871655;29;20223;-70
2023/05/19 09:03:04;;;;;;;8.60;2.88;;;17.70;79.50;;;;;;4871475;29;20049;-71
2023/05/19 09:05:31;;;;;;;8.10;2.20;;;17.80;79.40;;;;;;4862823;29;20041;-70
2023/05/19 09:07:56;;;;;;;11.27;2.50;;;17.70;80.40;;;;;;4871909;29;20320;-70
2023/05/19 09:10:22;;;;;;;6.55;2.40;;;17.80;79.30;;;;;;4871843;29;20038;-70
2023/05/19 09:12:48;;;;;;;7.10;2.33;;;17.70;79.90;;;;;;4871720;29;20024;-69
2023/05/19 09:15:18;;;;;;;6.82;2.53;;;17.70;79.30;;;;;;4871662;29;20037;-71
2023/05/19 09:17:46;;;;;;;6.72;2.17;;;17.60;79.70;;;;;;4870821;29;20097;-68
2023/05/19 09:20:13;;;;;;;7.40;2.53;;;17.50;79.80;;;;;;4871459;29;20034;-68
2023/05/19 09:22:49;;;;;;;7.68;2.33;;;17.50;79.50;;;;;;4870911;29;20065;-69
2023/05/19 09:25:25;;;;;;;7.30;2.20;;;17.40;79.80;;;;;;4871377;29;20108;-69
2023/05/19 09:27:53;;;;;;;5.38;2.10;;;17.50;80.10;;;;;;4871475;29;20037;-68
2023/05/19 09:30:20;;;;;;;8.95;2.28;;;17.40;79.90;;;;;;4871647;29;20311;-70
2023/05/19 09:32:46;;;;;;;6.10;2.35;;;17.50;79.90;;;;;;4871155;29;20052;-69
2023/05/19 09:35:12;;;;;;;6.65;2.13;;;17.50;80.00;;;;;;4871336;29;20104;-69
2023/05/19 09:37:42;;;;;;;8.82;2.50;;;17.30;80.20;;;;;;4871068;29;20032;-69
2023/05/19 09:40:09;;;;;;;8.43;2.20;;;17.10;80.70;;;;;;4857987;29;20030;-69
2023/05/19 09:42:39;;;;;;;7.55;2.53;;;17.10;81.10;;;;;;4870975;29;20035;-69
2023/05/19 09:45:06;;;;;;;8.90;2.40;;;17.10;81.50;;;;;;4883321;29;20216;-69
2023/05/19 09:47:39;;;;;;;7.70;2.45;;;17.20;81.00;;;;;;4880866;29;20040;-70
2023/05/19 09:50:07;;;;;;;6.90;2.63;;;17.30;80.80;;;;;;4871051;29;20048;-69
2023/05/19 09:52:37;;;;;;;5.85;2.20;;;17.30;81.10;;;;;;4870982;29;20037;-69
2023/05/19 09:55:11;;;;;;;8.48;2.58;;;17.50;80.40;;;;;;4870893;29;20030;-70
2023/05/19 09:57:38;;;;;;;9.32;1.98;;;17.60;80.40;;;;;;4870385;29;20116;-70
2023/05/19 10:00:16;;;;;;;6.05;2.35;;;18.00;79.00;;;;;;4871316;29;20283;-70
2023/05/19 10:02:44;;;;;;;8.25;2.22;;;18.20;78.00;;;;;;4870201;29;20067;-70
2023/05/19 10:05:15;;;;;;;11.43;2.55;;;18.60;77.40;;;;;;4877298;29;20100;-70
2023/05/19 10:08:01;;;;;;;6.47;2.03;;;18.60;77.10;;;;;;4870434;29;20045;-70
2023/05/19 10:10:28;;;;;;;9.55;2.05;;;18.40;77.40;;;;;;4870536;29;20331;-70
2023/05/19 10:12:54;;;;;;;7.80;2.00;;;18.40;77.80;;;;;;4870849;29;20045;-70
2023/05/19 10:15:20;;;;;;;6.47;2.20;;;17.90;78.00;;;;;;4870555;29;20314;-70
2023/05/19 10:17:46;;;;;;;7.13;2.33;;;17.70;79.60;;;;;;4870480;29;20116;-75
2023/05/19 10:20:15;;;;;;;5.03;2.55;;;17.40;79.70;;;;;;4871408;29;20045;-69
2023/05/19 10:22:42;;;;;;;9.00;2.83;;;17.40;79.80;;;;;;4870372;29;20052;-69
2023/05/19 10:25:08;;;;;;;6.47;2.50;;;17.50;79.70;;;;;;4856968;29;20033;-70
2023/05/19 10:27:54;;;;;;;6.60;2.15;;;17.70;79.60;;;;;;4869723;29;20065;-70
2023/05/19 10:30:33;;;;;;;6.43;2.30;;;17.70;79.90;;;;;;4854323;29;20038;-71
2023/05/19 10:33:01;;;;;;;6.93;2.00;;;17.90;79.40;;;;;;4870249;29;20040;-70
2023/05/19 10:36:09;;;;;;;4.80;1.88;;;17.80;78.90;;;;;;4870181;29;20031;-70
2023/05/19 10:38:49;;;;;;;5.32;2.47;;;17.60;80.00;;;;;;4870269;29;20044;-71
2023/05/19 10:41:34;;;;;;;5.43;2.10;;;17.60;79.20;;;;;;4870100;29;20323;-70
2023/05/19 10:44:06;;;;;;;4.45;2.00;;;17.60;79.90;;;;;;4870542;29;20249;-73
2023/05/19 10:46:32;;;;;;;6.35;2.13;;;17.50;79.60;;;;;;4872236;29;20330;-70
2023/05/19 10:48:58;;;;;;;8.30;2.05;;;17.60;79.50;;;;;;4870072;29;20034;-70
2023/05/19 10:51:31;;;;;;;6.07;2.33;;;17.30;79.10;;;;;;4869750;29;20113;-70
2023/05/19 10:53:57;;;;;;;6.65;2.28;;;17.20;79.80;;;;;;4870165;29;20260;-70
2023/05/19 10:56:33;;;;;;;8.32;1.90;;;17.10;80.60;;;;;;4869519;29;20059;-70
2023/05/19 10:59:00;;;;;;;9.15;3.55;;;17.00;81.10;;;;;;4870192;29;20037;-69
2023/05/19 11:01:34;;;;;;;8.95;3.17;;;16.80;81.60;;;;;;4869708;29;20026;-69
2023/05/19 11:04:11;;;;;;;6.00;2.78;;;16.80;81.60;;;;;;4874093;29;20060;-69
2023/05/19 11:06:39;;;;;;;5.15;2.40;;;16.80;81.50;;;;;;4871027;29;20223;-68
2023/05/19 11:09:07;;;;;;;8.50;2.95;;;16.90;81.80;;;;;;4870122;29;20033;-69
2023/05/19 11:11:51;;;;;;;7.68;2.72;;;17.00;81.60;;;;;;4869455;29;20030;-70
2023/05/19 11:14:22;;;;;;;9.50;2.95;;;17.10;81.10;;;;;;4870242;29;20051;-73
2023/05/19 11:16:55;;;;;;;7.40;2.63;;;17.10;81.30;;;;;;4869595;29;20044;-70
2023/05/19 11:19:25;;;;;;;6.32;2.53;;;17.20;80.70;;;;;;4869914;29;20041;-70
2023/05/19 11:21:56;;;;;;;5.40;2.08;;;17.20;81.10;;;;;;4877230;29;20037;-69
2023/05/19 11:24:53;;;;;;;6.38;2.20;;;17.00;80.70;;;;;;4875753;29;20045;-69
2023/05/19 11:27:37;;;;;;;8.52;2.30;;;17.00;81.40;;;;;;4869623;29;20199;-70
2023/05/19 11:30:06;;;;;;;6.88;2.60;;;16.90;81.10;;;;;;4873240;29;20045;-69
2023/05/19 11:32:34;;;;;;;8.07;2.60;;;16.90;81.70;;;;;;4861741;29;20327;-70
2023/05/19 11:35:01;;;;;;;7.43;2.83;;;16.90;81.60;;;;;;4875278;29;20037;-69
2023/05/19 11:37:30;;;;;;;7.82;2.88;;;16.90;81.80;;;;;;4869529;29;20061;-70
2023/05/19 11:39:57;;;;;;;6.00;2.33;;;17.00;81.40;;;;;;4869601;29;20045;-70
2023/05/19 11:42:22;;;;;;;7.60;2.35;;;17.00;80.90;;;;;;4873569;29;20093;-70
2023/05/19 11:44:48;;;;;;;7.88;2.42;;;17.00;81.10;;;;;;4880680;29;20033;-69
2023/05/19 11:47:16;;;;;;;7.30;2.25;;;17.00;81.50;;;;;;4875697;29;20244;-70
2023/05/19 11:49:50;;;;;;;9.80;2.70;;;17.00;81.50;;;;;;4872855;29;20335;-70
2023/05/19 11:52:19;;;;;;;5.47;1.88;;;17.20;81.30;;;;;;4873397;29;20157;-70
2023/05/19 11:54:47;;;;;;;6.18;2.65;;;17.20;80.20;;;;;;4872526;29;20261;-70
2023/05/19 11:57:13;;;;;;;6.45;2.65;;;17.20;80.50;;;;;;4873208;29;20049;-69
2023/05/19 11:59:44;;;;;;;7.78;2.65;;;17.00;80.80;;;;;;4872536;29;20081;-68
2023/05/19 12:02:24;;;;;;;7.47;2.47;;;16.90;81.10;;;;;;4872962;29;20049;-69
2023/05/19 12:04:50;;;;;;;7.05;2.63;;;17.00;81.80;;;;;;4878665;29;20331;-70
2023/05/19 12:07:19;;;;;;;7.63;2.60;;;17.00;81.20;;;;;;4890849;29;20049;-70
2023/05/19 12:09:46;;;;;;;6.80;2.55;;;17.10;81.10;;;;;;4884858;29;20354;-70
2023/05/19 12:12:19;;;;;;;5.28;2.58;;;17.00;80.80;;;;;;4873363;29;20033;-70
2023/05/19 12:14:46;;;;;;;7.78;2.80;;;17.00;81.30;;;;;;4872489;29;20189;-71
2023/05/19 12:17:18;;;;;;;10.13;2.90;;;17.10;81.60;;;;;;4872969;29;20037;-70
2023/05/19 12:19:48;;;;;;;8.13;3.13;;;17.20;81.00;;;;;;4872075;29;20061;-70
2023/05/19 12:22:15;;;;;;;7.90;2.70;;;17.20;80.70;;;;;;4864561;29;20034;-71
2023/05/19 12:24:42;;;;;;;7.93;2.33;;;17.50;80.70;;;;;;4876914;29;20096;-71
2023/05/19 12:27:18;;;;;;;9.23;2.40;;;17.60;79.90;;;;;;4891419;29;20039;-71
2023/05/19 12:29:54;;;;;;;6.88;2.65;;;17.90;79.60;;;;;;4883058;29;20326;-70
2023/05/19 12:32:24;;;;;;;6.18;2.67;;;17.90;79.20;;;;;;4872632;29;20026;-71
2023/05/19 12:34:51;;;;;;;6.53;2.67;;;17.90;79.20;;;;;;4872131;29;20041;-71
2023/05/19 12:37:18;;;;;;;6.55;2.45;;;17.90;79.40;;;;;;4869453;29;20094;-71
2023/05/19 12:39:44;;;;;;;34.97;4.70;;;17.90;78.80;;;;;;4873512;29;20026;-70
2023/05/19 12:42:15;;;;;;;6.10;2.20;;;17.90;79.40;;;;;;4873871;29;20196;-70
2023/05/19 12:44:46;;;;;;;8.38;2.25;;;18.00;79.20;;;;;;4881143;29;20037;-71
2023/05/19 12:47:15;;;;;;;7.32;2.45;;;18.00;79.20;;;;;;4875615;29;20056;-71
2023/05/19 12:50:00;;;;;;;6.93;2.75;;;18.20;78.90;;;;;;4874967;29;20231;-71
2023/05/19 12:52:28;;;;;;;6.72;2.30;;;18.10;78.60;;;;;;4875048;29;20105;-71
2023/05/19 12:55:05;;;;;;;8.05;2.95;;;18.00;78.90;;;;;;4871918;29;20017;-70
2023/05/19 12:57:36;;;;;;;6.82;2.50;;;17.90;79.70;;;;;;4871569;29;20037;-71
2023/05/19 13:00:06;;;;;;;7.10;2.55;;;17.70;79.80;;;;;;4871533;29;20085;-71
2023/05/19 13:02:53;;;;;;;6.63;2.17;;;17.60;80.20;;;;;;4871406;29;20041;-71
2023/05/19 13:05:19;;;;;;;9.45;2.92;;;17.50;80.50;;;;;;4868886;29;20086;-70
2023/05/19 13:07:59;;;;;;;4.88;2.10;;;17.30;80.20;;;;;;4873914;29;20086;-70
2023/05/19 13:10:26;;;;;;;8.98;2.35;;;17.40;80.10;;;;;;4871991;29;20044;-71
2023/05/19 13:12:55;;;;;;;6.07;2.42;;;17.40;80.70;;;;;;4873960;29;20408;-71
2023/05/19 13:15:23;;;;;;;7.38;2.95;;;17.40;80.90;;;;;;4874126;29;20052;-71
2023/05/19 13:17:49;;;;;;;6.03;2.60;;;17.50;80.90;;;;;;4873631;29;20036;-71
2023/05/19 13:20:14;;;;;;;8.30;2.60;;;17.50;80.90;;;;;;4871763;29;20472;-71
2023/05/19 13:22:41;;;;;;;7.60;2.70;;;17.50;81.10;;;;;;4870977;29;20065;-71
2023/05/19 13:25:08;;;;;;;7.70;2.72;;;17.60;80.70;;;;;;4871909;29;20022;-70
2023/05/19 13:27:34;;;;;;;8.13;2.25;;;17.80;80.40;;;;;;4870825;29;20358;-70
2023/05/19 13:30:00;;;;;;;7.05;2.75;;;17.80;80.60;;;;;;4871549;29;20029;-71
2023/05/19 13:32:26;;;;;;;10.20;2.78;;;17.90;80.70;;;;;;4885479;29;20025;-71
2023/05/19 13:34:51;;;;;;;7.70;2.45;;;18.00;80.60;;;;;;4889554;29;20371;-71
2023/05/19 13:37:17;;;;;;;6.38;2.58;;;18.00;79.70;;;;;;4890048;29;20196;-70
2023/05/19 13:39:43;;;;;;;6.65;2.55;;;17.90;80.20;;;;;;4889277;29;20342;-71
2023/05/19 13:42:09;;;;;;;7.32;3.03;;;17.90;80.00;;;;;;4890222;29;20068;-70
2023/05/19 13:44:35;;;;;;;6.03;2.67;;;17.80;79.90;;;;;;4871035;29;20036;-69
2023/05/19 13:47:00;;;;;;;6.80;2.60;;;17.70;80.20;;;;;;4871269;29;20315;-69
2023/05/19 13:49:26;;;;;;;7.75;2.22;;;17.70;81.00;;;;;;4871141;29;20044;-70
2023/05/19 13:51:56;;;;;;;6.60;2.22;;;17.60;80.80;;;;;;4870658;29;20081;-70
2023/05/19 13:54:22;;;;;;;6.97;2.45;;;17.60;81.00;;;;;;4871123;29;20037;-70
2023/05/19 13:56:49;;;;;;;9.00;2.58;;;17.50;81.00;;;;;;4870475;29;20036;-70
2023/05/19 13:59:18;;;;;;;7.63;2.47;;;17.40;81.30;;;;;;4870737;29;20064;-72
2023/05/19 14:01:44;;;;;;;6.75;2.50;;;17.30;81.00;;;;;;4870056;29;20328;-72
2023/05/19 14:04:09;;;;;;;5.13;2.40;;;17.30;81.40;;;;;;4870514;29;20098;-69
2023/05/19 14:06:38;;;;;;;9.95;2.15;;;17.20;81.30;;;;;;4870200;29;20034;-69
2023/05/19 14:09:08;;;;;;;7.72;2.28;;;17.20;81.90;;;;;;4870660;29;20139;-70
2023/05/19 14:11:34;;;;;;;6.03;2.30;;;17.20;81.80;;;;;;4870484;29;20045;-70
2023/05/19 14:13:59;;;;;;;7.18;2.33;;;17.30;81.90;;;;;;4870903;29;20070;-69
2023/05/19 14:16:27;;;;;;;5.55;2.22;;;17.50;81.20;;;;;;4870989;29;20172;-70
2023/05/19 14:18:53;;;;;;;6.57;2.50;;;17.60;81.30;;;;;;4870050;29;20056;-70
2023/05/19 14:21:18;;;;;;;6.65;2.30;;;17.80;80.60;;;;;;4870700;29;20088;-70
2023/05/19 14:23:45;;;;;;;7.70;2.50;;;17.90;80.50;;;;;;4870098;29;20041;-70
2023/05/19 14:26:10;;;;;;;7.07;2.38;;;18.10;79.90;;;;;;4870555;29;20104;-70
2023/05/19 14:28:36;;;;;;;7.30;2.53;;;18.10;79.40;;;;;;4870473;29;20033;-70
2023/05/19 14:31:02;;;;;;;7.45;2.38;;;18.20;80.20;;;;;;4874784;29;20025;-70
2023/05/19 14:33:28;;;;;;;8.13;2.35;;;18.40;80.00;;;;;;4889335;29;20073;-70
2023/05/19 14:35:54;;;;;;;6.18;2.33;;;18.50;79.50;;;;;;4888484;29;20338;-71
2023/05/19 14:38:20;;;;;;;5.35;2.45;;;18.60;79.30;;;;;;4889230;29;20036;-71
2023/05/19 14:40:47;;;;;;;6.93;2.42;;;18.50;78.90;;;;;;4888350;29;20345;-70
2023/05/19 14:43:13;;;;;;;5.93;2.30;;;18.20;78.80;;;;;;4880307;29;20049;-70
2023/05/19 14:45:40;;;;;;;6.45;2.40;;;18.00;78.90;;;;;;4869645;29;20108;-70
2023/05/19 14:48:06;;;;;;;7.57;2.47;;;17.90;79.40;;;;;;4870525;29;20037;-69
2023/05/19 14:50:32;;;;;;;4.75;2.00;;;17.90;80.00;;;;;;4870255;29;20047;-75
2023/05/19 14:52:58;;;;;;;7.22;2.40;;;17.80;80.50;;;;;;4869759;29;20046;-73
2023/05/19 14:55:24;;;;;;;7.45;2.70;;;17.70;81.00;;;;;;4870259;29;20022;-71
2023/05/19 14:57:50;;;;;;;7.07;2.40;;;17.80;81.20;;;;;;4869508;29;20041;-74
2023/05/19 15:00:17;;;;;;;5.70;2.50;;;17.70;80.90;;;;;;4870172;29;20037;-72
2023/05/19 15:02:43;;;;;;;7.05;2.65;;;17.70;81.40;;;;;;4869497;29;20105;-73
2023/05/19 15:05:10;;;;;;;6.38;2.60;;;17.60;81.00;;;;;;4870003;29;20057;-70
2023/05/19 15:07:36;;;;;;;3.90;1.63;;;17.60;81.30;;;;;;4869516;29;20046;-69
2023/05/19 15:10:03;;;;;;;5.75;2.38;;;17.60;81.70;;;;;;4870230;29;20032;-69
2023/05/19 15:12:29;;;;;;;6.03;2.38;;;17.50;80.90;;;;;;4869790;29;20331;-69
2023/05/19 15:14:55;;;;;;;8.65;3.08;;;17.50;81.10;;;;;;4869311;29;20052;-70
2023/05/19 15:17:20;;;;;;;5.90;2.50;;;17.50;81.70;;;;;;4874147;29;20100;-70
2023/05/19 15:19:46;;;;;;;6.50;2.25;;;17.50;81.80;;;;;;4873601;29;20037;-70
2023/05/19 15:22:12;;;;;;;5.32;2.22;;;17.40;81.90;;;;;;4866770;29;20033;-70
2023/05/19 15:24:38;;;;;;;6.57;2.05;;;17.50;82.10;;;;;;4862347;29;20029;-70
2023/05/19 15:27:04;;;;;;;5.15;2.00;;;17.50;82.10;;;;;;4892232;29;20104;-70
2023/05/19 15:29:30;;;;;;;6.15;2.50;;;17.60;82.10;;;;;;4890802;29;20029;-70
2023/05/19 15:31:56;;;;;;;6.88;2.15;;;17.70;81.60;;;;;;4881244;29;20047;-70
2023/05/19 15:34:22;;;;;;;9.63;2.95;;;17.80;81.70;;;;;;4885010;29;20034;-71
2023/05/19 15:36:48;;;;;;;7.15;2.05;;;17.90;81.20;;;;;;4874717;29;20041;-75
2023/05/19 15:39:14;;;;;;;6.70;2.50;;;17.90;81.60;;;;;;4873521;29;20036;-71
2023/05/19 15:41:40;;;;;;;6.15;2.35;;;18.00;81.80;;;;;;4873219;29;20048;-70
2023/05/19 15:44:05;;;;;;;6.40;2.50;;;18.00;81.50;;;;;;4888670;29;20033;-70
2023/05/19 15:46:32;;;;;;;7.40;2.45;;;18.00;81.00;;;;;;4891785;29;20037;-69
2023/05/19 15:48:57;;;;;;;6.78;2.10;;;18.00;80.70;;;;;;4862062;29;20052;-70
2023/05/19 15:51:23;;;;;;;9.55;2.40;;;17.90;81.20;;;;;;4891990;29;20041;-70
2023/05/19 15:53:49;;;;;;;6.18;2.58;;;17.90;80.70;;;;;;4886728;29;20046;-70
2023/05/19 15:56:15;;;;;;;9.55;2.65;;;17.90;80.90;;;;;;4873248;29;20056;-70
2023/05/19 15:58:41;;;;;;;5.65;2.75;;;18.00;81.60;;;;;;4872556;29;20331;-69
2023/05/19 16:01:07;;;;;;;6.03;1.95;;;17.90;81.50;;;;;;4873220;29;20030;-69
2023/05/19 16:03:33;;;;;;;5.25;2.42;;;18.10;81.60;;;;;;4856838;29;20100;-71
2023/05/19 16:05:59;;;;;;;6.60;2.25;;;18.20;81.10;;;;;;4872789;29;20315;-70
2023/05/19 16:08:25;;;;;;;5.85;2.30;;;18.20;81.40;;;;;;4873163;29;20347;-70
2023/05/19 16:10:52;;;;;;;7.90;2.35;;;18.30;81.40;;;;;;4882884;29;20100;-70
2023/05/19 16:13:18;;;;;;;5.25;2.38;;;18.30;81.00;;;;;;4873077;29;20033;-70
2023/05/19 16:15:43;;;;;;;6.07;2.55;;;18.40;80.20;;;;;;4872524;29;20052;-70
2023/05/19 16:18:10;;;;;;;5.97;1.80;;;18.50;80.10;;;;;;4856617;29;20315;-70
2023/05/19 16:20:36;;;;;;;5.40;2.10;;;18.40;80.20;;;;;;4856276;29;20029;-70
2023/05/19 16:23:02;;;;;;;6.45;1.80;;;18.50;80.50;;;;;;4859730;29;20031;-70
2023/05/19 16:25:27;;;;;;;5.03;1.92;;;18.60;79.80;;;;;;4879247;29;20064;-70
2023/05/19 16:27:53;;;;;;;8.38;2.33;;;18.70;79.50;;;;;;4871530;29;20049;-70
2023/05/19 16:30:19;;;;;;;4.45;2.08;;;18.80;79.80;;;;;;4872502;29;20033;-71
2023/05/19 16:32:45;;;;;;;5.68;1.95;;;18.90;79.20;;;;;;4889525;29;20077;-70
2023/05/19 16:35:11;;;;;;;5.18;1.92;;;18.80;79.10;;;;;;4891348;29;20033;-70
2023/05/19 16:37:36;;;;;;;4.45;1.67;;;18.80;79.40;;;;;;4891274;29;20060;-70
2023/05/19 16:40:03;;;;;;;5.65;1.88;;;18.90;78.90;;;;;;4864242;29;20200;-70
2023/05/19 16:42:28;;;;;;;6.32;2.15;;;18.80;79.10;;;;;;4872541;29;20316;-74
2023/05/19 16:44:54;;;;;;;4.13;1.83;;;18.80;79.10;;;;;;4871627;29;20067;-72
2023/05/19 16:47:20;;;;;;;6.18;1.90;;;18.90;79.30;;;;;;4872123;29;20154;-71
2023/05/19 16:49:45;;;;;;;6.07;2.20;;;19.10;79.30;;;;;;4871837;29;20424;-72
2023/05/19 16:52:11;;;;;;;4.95;2.00;;;19.50;78.70;;;;;;4872071;29;20044;-71
2023/05/19 16:54:37;;;;;;;4.28;1.80;;;19.70;77.60;;;;;;4872468;29;20072;-72
2023/05/19 16:57:03;;;;;;;5.07;2.28;;;19.90;76.80;;;;;;4871487;29;20331;-72
2023/05/19 16:59:29;;;;;;;6.50;1.90;;;20.30;76.10;;;;;;4872130;29;20108;-71
2023/05/19 17:01:57;;;;;;;5.32;1.88;;;20.70;75.00;;;;;;4871112;29;20335;-72
2023/05/19 17:04:23;;;;;;;4.38;1.55;;;21.30;74.70;;;;;;4871889;29;20338;-71
2023/05/19 17:06:49;;;;;;;4.57;1.60;;;21.90;73.30;;;;;;4871218;29;20045;-71
2023/05/19 17:09:14;;;;;;;5.07;1.98;;;22.10;71.70;;;;;;4871883;29;20096;-69
2023/05/19 17:11:41;;;;;;;5.20;2.00;;;22.60;71.20;;;;;;4878976;29;20045;-70
2023/05/19 17:14:07;;;;;;;4.35;1.77;;;23.80;68.90;;;;;;4860011;29;20093;-70
2023/05/19 17:16:34;;;;;;;6.00;1.73;;;25.40;66.50;;;;;;4879523;29;20017;-69
2023/05/19 17:19:01;;;;;;;5.03;2.03;;;25.70;64.60;;;;;;4874130;29;20070;-70
2023/05/19 17:21:27;;;;;;;6.63;1.90;;;25.20;65.10;;;;;;4875936;29;20315;-70
2023/05/19 17:23:55;;;;;;;4.28;1.90;;;24.80;65.80;;;;;;4870047;29;20046;-71
2023/05/19 17:26:21;;;;;;;3.92;1.90;;;24.40;65.70;;;;;;4877429;29;20210;-69
2023/05/19 17:28:47;;;;;;;7.88;1.92;;;24.00;66.30;;;;;;4874664;29;20053;-70
2023/05/19 17:31:14;;;;;;;3.70;1.70;;;24.10;66.30;;;;;;4877196;29;20049;-71
2023/05/19 17:33:40;;;;;;;5.13;2.33;;;24.30;66.10;;;;;;4883804;29;20034;-70
2023/05/19 17:36:08;;;;;;;4.93;2.00;;;24.80;65.60;;;;;;4870664;29;20064;-70
2023/05/19 17:38:34;;;;;;;4.95;2.10;;;25.80;63.40;;;;;;4881766;29;20325;-70
2023/05/19 17:41:01;;;;;;;4.88;1.75;;;25.80;63.00;;;;;;4876349;29;20041;-71
2023/05/19 17:43:27;;;;;;;5.85;2.00;;;25.80;62.50;;;;;;4878801;29;20044;-70
2023/05/19 17:45:53;;;;;;;4.32;1.90;;;26.00;62.30;;;;;;4870113;29;20034;-70
2023/05/19 17:48:19;;;;;;;4.45;1.52;;;26.70;60.90;;;;;;4871052;29;20029;-70
2023/05/19 17:50:48;;;;;;;4.38;1.60;;;26.70;60.60;;;;;;4869499;29;20021;-71